createdAt,value
2023-01-23T00:00:17.242Z,30.80
2023-01-23T00:05:21.558Z,27.10
2023-01-23T00:10:24.553Z,35.63
2023-01-23T00:15:28.293Z,32.23
2023-01-23T00:20:32.621Z,29.27
2023-01-23T00:25:36.341Z,34.63
2023-01-23T00:30:39.293Z,29.67
2023-01-23T00:35:43.589Z,36.20
2023-01-23T00:40:46.474Z,29.37
2023-01-23T00:45:49.499Z,32.50
2023-01-23T00:50:54.301Z,34.30
2023-01-23T00:55:57.366Z,32.97
2023-01-23T01:01:00.553Z,26.87
2023-01-23T01:06:05.472Z,33.43
2023-01-23T01:11:09.080Z,31.67
2023-01-23T01:16:12.647Z,35.23
2023-01-23T01:21:17.407Z,37.00
2023-01-23T01:26:22.951Z,35.67
2023-01-23T01:31:26.845Z,31.07
2023-01-23T01:36:32.177Z,34.63
2023-01-23T01:41:35.765Z,32.33
2023-01-23T01:46:38.739Z,35.23
2023-01-23T01:51:47.094Z,26.13
2023-01-23T01:56:54.587Z,31.90
2023-01-23T02:02:05.183Z,32.90
2023-01-23T02:07:15.774Z,32.10
2023-01-23T02:12:18.708Z,35.30
2023-01-23T02:17:21.957Z,35.37
2023-01-23T02:22:35.299Z,32.73
2023-01-23T02:27:40.972Z,38.87
2023-01-23T02:32:43.874Z,31.30
2023-01-23T02:37:48.562Z,29.90
2023-01-23T02:42:55.442Z,27.73
2023-01-23T02:48:01.462Z,32.20
2023-01-23T02:53:05.261Z,29.47
2023-01-23T02:58:27.695Z,28.93
2023-01-23T03:03:31.662Z,30.20
2023-01-23T03:08:36.850Z,31.77
2023-01-23T03:13:41.747Z,31.40
2023-01-23T03:18:53.934Z,33.00
2023-01-23T03:23:57.881Z,35.47
2023-01-23T03:29:19.754Z,30.27
2023-01-23T03:34:22.922Z,32.37
2023-01-23T03:39:43.934Z,32.40
2023-01-23T03:44:48.821Z,31.03
2023-01-23T03:49:52.198Z,30.03
2023-01-23T03:54:55.490Z,30.87
2023-01-23T03:59:59.859Z,31.87
2023-01-23T04:05:22.696Z,26.93
2023-01-23T04:10:25.747Z,30.50
2023-01-23T04:15:34.344Z,30.83
2023-01-23T04:20:40.740Z,26.47
2023-01-23T04:25:43.703Z,31.20
2023-01-23T04:30:52.247Z,30.33
2023-01-23T04:36:04.941Z,31.40
2023-01-23T04:41:07.920Z,29.90
2023-01-23T04:46:15.315Z,30.87
2023-01-23T04:51:21.479Z,27.87
2023-01-23T04:56:24.502Z,29.30
2023-01-23T05:01:29.085Z,30.33
2023-01-23T05:06:37.649Z,31.77
2023-01-23T05:11:42.055Z,29.67
2023-01-23T05:16:49.082Z,29.33
2023-01-23T05:22:01.436Z,30.60
2023-01-23T05:27:05.983Z,27.70
2023-01-23T05:32:14.798Z,26.60
2023-01-23T05:37:20.565Z,28.33
2023-01-23T05:42:27.628Z,29.90
2023-01-23T05:48:00.835Z,32.30
2023-01-23T05:53:04.293Z,31.00
2023-01-23T05:58:07.565Z,26.03
2023-01-23T06:03:30.113Z,32.93
2023-01-23T06:08:45.446Z,33.07
2023-01-23T06:13:48.367Z,33.20
2023-01-23T06:18:52.999Z,32.90
2023-01-23T06:23:56.336Z,37.20
2023-01-23T06:28:59.621Z,34.73
2023-01-23T06:34:04.017Z,33.97
2023-01-23T06:39:17.008Z,32.73
2023-01-23T06:44:20.218Z,40.10
2023-01-23T06:49:24.648Z,37.83
2023-01-23T06:54:28.853Z,34.47
2023-01-23T06:59:37.573Z,30.60
2023-01-23T07:04:45.691Z,30.00
2023-01-23T07:09:49.221Z,30.87
2023-01-23T07:14:56.023Z,32.80
2023-01-23T07:20:07.124Z,27.27
2023-01-23T07:25:16.536Z,32.30
2023-01-23T07:30:20.524Z,31.70
2023-01-23T07:35:25.062Z,30.63
2023-01-23T07:40:30.676Z,28.53
2023-01-23T07:45:33.603Z,34.27
2023-01-23T07:50:38.148Z,31.40
2023-01-23T07:55:41.062Z,33.23
2023-01-23T08:00:44.037Z,33.20
2023-01-23T08:05:50.884Z,33.57
2023-01-23T08:10:53.743Z,35.10
2023-01-23T08:15:58.820Z,35.73
2023-01-23T08:21:04.176Z,38.90
2023-01-23T08:26:08.780Z,36.03
2023-01-23T08:31:13.229Z,33.77
2023-01-23T08:36:17.541Z,45.03
2023-01-23T08:41:20.862Z,40.50
2023-01-23T08:46:24.010Z,41.07
2023-01-23T08:51:28.354Z,42.00
2023-01-23T08:56:31.320Z,46.00
2023-01-23T09:01:34.245Z,44.73
2023-01-23T09:06:38.975Z,37.47
2023-01-23T09:11:41.900Z,40.87
2023-01-23T09:16:44.847Z,38.37
2023-01-23T09:21:49.264Z,42.40
2023-01-23T09:26:52.213Z,36.77
2023-01-23T09:31:55.139Z,38.87
2023-01-23T09:36:59.406Z,36.50
2023-01-23T09:42:08.495Z,36.90
2023-01-23T09:47:16.414Z,42.67
2023-01-23T09:52:23.415Z,41.30
2023-01-23T09:57:34.321Z,44.23
2023-01-23T10:02:37.307Z,44.13
2023-01-23T10:07:53.275Z,45.37
2023-01-23T10:13:05.933Z,44.00
2023-01-23T10:18:24.269Z,41.33
2023-01-23T10:23:48.176Z,35.90
2023-01-23T10:28:55.770Z,37.80
2023-01-23T10:34:08.002Z,36.27
2023-01-23T10:39:17.249Z,48.40
2023-01-23T10:44:22.536Z,38.80
2023-01-23T10:49:30.702Z,40.80
2023-01-23T10:54:46.699Z,34.80
2023-01-23T10:59:56.928Z,42.10
2023-01-23T11:05:00.764Z,44.10
2023-01-23T11:10:23.158Z,36.37
2023-01-23T11:15:28.557Z,39.70
2023-01-23T11:20:33.790Z,37.40
2023-01-23T11:25:40.808Z,40.83
2023-01-23T11:30:47.634Z,36.90
2023-01-23T11:36:01.764Z,37.67
2023-01-23T11:41:08.673Z,37.57
2023-01-23T11:46:28.392Z,40.60
2023-01-23T11:51:38.963Z,35.83
2023-01-23T11:56:56.479Z,42.10
2023-01-23T12:02:18.961Z,40.57
2023-01-23T12:07:24.152Z,33.37
2023-01-23T12:12:51.327Z,30.90
2023-01-23T12:18:04.815Z,29.90
2023-01-23T12:23:38.826Z,34.90
2023-01-23T12:28:57.901Z,29.97
2023-01-23T12:34:27.437Z,31.93
2023-01-23T12:39:50.278Z,31.40
2023-01-23T12:45:02.843Z,36.50
2023-01-23T12:50:18.117Z,36.77
2023-01-23T12:55:25.288Z,37.73
2023-01-23T13:00:44.602Z,39.70
2023-01-23T13:05:57.227Z,40.23
2023-01-23T13:11:23.053Z,46.40
2023-01-23T13:16:30.804Z,44.43
2023-01-23T13:21:51.030Z,45.90
2023-01-23T13:26:54.277Z,44.27
2023-01-23T13:32:21.188Z,40.73
2023-01-23T13:37:51.166Z,44.23
2023-01-23T13:42:54.326Z,48.70
2023-01-23T14:21:41.016Z,49.13
2023-01-23T14:26:50.773Z,50.07
2023-01-23T14:31:54.062Z,55.07
2023-01-23T14:37:03.990Z,58.60
2023-01-23T14:42:11.569Z,52.83
2023-01-23T14:47:28.234Z,71.50
2023-01-23T14:52:33.984Z,67.73
2023-01-23T14:57:39.629Z,67.47
2023-01-23T15:02:43.728Z,74.93
2023-01-23T15:07:50.111Z,78.87
2023-01-23T15:12:56.916Z,79.87
2023-01-23T15:18:01.628Z,69.03
2023-01-23T15:23:25.605Z,71.70
2023-01-23T15:28:32.036Z,75.57
2023-01-23T15:33:39.903Z,79.10
2023-01-23T15:38:48.901Z,77.53
2023-01-23T15:43:51.853Z,74.07
2023-01-23T15:48:55.144Z,92.73
2023-01-23T15:53:59.526Z,82.27
2023-01-23T15:59:02.835Z,81.87
2023-01-23T16:04:05.881Z,93.53
2023-01-23T16:09:18.808Z,91.93
2023-01-23T16:14:22.071Z,105.10
2023-01-23T16:19:25.041Z,78.67
2023-01-23T16:24:30.342Z,93.70
2023-01-23T16:29:35.028Z,99.17
2023-01-23T16:34:38.316Z,90.40
2023-01-23T16:39:44.330Z,79.40
2023-01-23T16:44:47.365Z,84.53
2023-01-23T16:49:53.274Z,71.57
2023-01-23T16:54:58.468Z,85.60
2023-01-23T17:00:01.501Z,91.77
2023-01-23T17:05:04.484Z,69.23
2023-01-23T17:10:14.236Z,79.60
2023-01-23T17:15:25.910Z,70.37
2023-01-23T17:20:29.832Z,87.63
2023-01-23T17:25:36.676Z,76.73
2023-01-23T17:30:43.268Z,79.33
2023-01-23T17:35:48.544Z,76.27
2023-01-23T17:40:54.849Z,74.73
2023-01-23T17:45:57.927Z,75.50
2023-01-23T17:51:01.005Z,71.13
2023-01-23T17:56:05.891Z,79.00
2023-01-23T18:01:18.755Z,59.07
2023-01-23T18:06:21.989Z,61.60
2023-01-23T18:11:27.671Z,69.50
2023-01-23T18:16:37.495Z,69.07
2023-01-23T18:21:40.917Z,69.93
2023-01-23T18:26:51.218Z,69.33
2023-01-23T18:32:13.410Z,62.87
2023-01-23T18:37:24.309Z,68.83
2023-01-23T18:42:35.771Z,67.70
2023-01-23T18:47:39.301Z,63.47
2023-01-23T18:52:51.074Z,78.83
2023-01-23T18:58:05.502Z,63.43
2023-01-23T19:03:14.381Z,61.90
2023-01-23T19:08:31.596Z,67.03
2023-01-23T19:13:43.866Z,70.40
2023-01-23T19:18:48.463Z,66.20
2023-01-23T19:23:57.233Z,68.07
2023-01-23T19:29:20.016Z,69.53
2023-01-23T19:34:24.460Z,65.10
2023-01-23T19:39:29.039Z,59.80
2023-01-23T19:44:33.658Z,67.33
2023-01-23T19:49:36.552Z,83.03
2023-01-23T19:54:39.454Z,62.47
2023-01-23T19:59:43.681Z,64.10
2023-01-23T20:04:47.151Z,65.03
2023-01-23T20:09:50.109Z,72.43
2023-01-23T20:14:56.847Z,64.30
2023-01-23T20:19:59.848Z,59.20
2023-01-23T20:25:02.806Z,61.33
2023-01-23T20:30:09.354Z,64.60
2023-01-23T20:35:12.851Z,65.40
2023-01-23T20:40:15.802Z,72.27
2023-01-23T20:45:20.553Z,62.90
2023-01-23T20:50:23.622Z,75.13
2023-01-23T20:55:26.500Z,73.50
2023-01-23T21:00:30.720Z,68.23
2023-01-23T21:05:33.565Z,62.37
2023-01-23T21:10:36.445Z,74.03
2023-01-23T21:15:40.689Z,66.63
2023-01-23T21:20:43.591Z,76.37
2023-01-23T21:25:46.731Z,81.77
2023-01-23T21:30:51.106Z,70.47
2023-01-23T21:35:55.482Z,80.77
2023-01-23T21:40:58.382Z,70.97
2023-01-23T21:46:02.759Z,77.90
2023-01-23T21:51:07.447Z,76.00
2023-01-23T21:56:11.507Z,78.60
2023-01-23T22:01:33.757Z,77.80
2023-01-23T22:06:38.583Z,93.60
2023-01-23T22:11:41.542Z,87.80
2023-01-23T22:16:48.909Z,82.63
2023-01-23T22:21:52.430Z,77.27
2023-01-23T22:26:55.353Z,89.70
2023-01-23T22:31:59.760Z,72.63
2023-01-23T22:37:02.720Z,75.57
2023-01-23T22:42:05.786Z,85.73
2023-01-23T22:47:10.110Z,79.73
2023-01-23T22:52:13.057Z,77.77
2023-01-23T22:57:15.955Z,86.80
2023-01-23T23:02:20.227Z,84.80
2023-01-23T23:07:23.084Z,101.33
2023-01-23T23:12:28.371Z,90.40
2023-01-23T23:17:32.648Z,76.50
2023-01-23T23:22:35.553Z,74.27
2023-01-23T23:27:39.108Z,77.83
2023-01-23T23:32:43.405Z,83.73
2023-01-23T23:37:46.427Z,81.43
2023-01-23T23:42:49.277Z,74.23
2023-01-23T23:47:54.998Z,75.03
2023-01-23T23:52:57.905Z,85.57
2023-01-23T23:58:00.807Z,72.53
